Time;durP1;ratioP1;P1;durP2;ratioP2;P2;SDS_P1;SDS_P2;PMS_P1;PMS_P2;Temp;Humidity;BMP_temperature;BMP_pressure;BME280_temperature;BME280_humidity;BME280_pressure;Samples;Min_cycle;Max_cycle;Signal;HPM_P1;HPM_P2
2023/04/17 00:01:46;;;;;;;9.17;7.03;;;;;;;-143.84;84.67;44546.41;4979564;28;20457;-62
2023/04/17 00:04:13;;;;;;;14.70;7.53;;;;;;;-143.84;84.84;44540.69;4970448;28;20449;-63
2023/04/17 00:06:43;;;;;;;11.70;6.78;;;;;;;-143.84;84.43;44611.13;4970381;28;20488;-62
2023/04/17 00:09:10;;;;;;;8.10;6.07;;;;;;;-143.84;84.06;44683.50;4970442;28;20233;-62
2023/04/17 00:11:37;;;;;;;8.15;6.38;;;;;;;-143.84;84.03;44679.69;4971105;28;20441;-63
2023/04/17 00:14:06;;;;;;;8.53;6.57;;;;;;;-143.84;83.94;44752.03;4971268;28;20265;-62
2023/04/17 00:16:33;;;;;;;11.63;7.07;;;;;;;-143.84;83.83;44790.13;4970663;28;20485;-62
2023/04/17 00:19:00;;;;;;;8.03;6.80;;;;;;;-143.84;84.18;44681.59;4971633;28;20457;-62
2023/04/17 00:21:28;;;;;;;6.67;5.97;;;;;;;-143.84;83.92;44706.34;4970142;28;20454;-62
2023/04/17 00:23:57;;;;;;;7.03;6.10;;;;;;;-143.84;84.03;44702.53;4970517;28;20464;-62
2023/04/17 00:26:24;;;;;;;8.80;6.27;;;;;;;-143.84;83.55;44767.25;4974245;28;20538;-62
2023/04/17 00:28:51;;;;;;;9.07;7.20;;;;;;;-143.84;83.61;44822.47;4973149;28;20460;-62
2023/04/17 00:31:18;;;;;;;6.93;6.23;;;;;;;-143.84;83.37;44782.50;4973699;28;20520;-62
2023/04/17 00:33:46;;;;;;;6.60;5.97;;;;;;;-143.84;83.28;44824.38;4972234;28;20537;-62
2023/04/17 00:36:14;;;;;;;6.47;5.97;;;;;;;-143.84;82.93;44856.75;4970122;28;20533;-63
2023/04/17 00:38:41;;;;;;;7.17;6.47;;;;;;;-143.84;83.03;44851.03;4971132;28;20829;-62
2023/04/17 00:41:10;;;;;;;7.03;6.20;;;;;;;-143.84;82.84;44877.69;4973827;28;20507;-63
2023/04/17 00:43:38;;;;;;;15.63;6.77;;;;;;;-143.84;83.03;44860.56;4972103;28;20456;-62
2023/04/17 00:46:06;;;;;;;9.88;6.15;;;;;;;-143.84;83.83;44744.41;4970006;28;20485;-63
2023/04/17 00:48:35;;;;;;;10.25;6.82;;;;;;;-143.84;84.32;44626.38;4966239;28;20202;-62
2023/04/17 00:51:02;;;;;;;12.30;7.00;;;;;;;-143.84;84.68;44514.03;4970077;28;20318;-62
2023/04/17 00:53:30;;;;;;;15.30;7.20;;;;;;;-143.84;84.94;44420.75;4970636;28;20445;-62
2023/04/17 00:55:59;;;;;;;17.83;7.55;;;;;;;-143.84;84.86;44447.41;4970810;28;20445;-62
2023/04/17 00:58:27;;;;;;;13.10;6.37;;;;;;;-143.84;84.80;44481.69;4970731;28;20211;-62
2023/04/17 01:00:55;;;;;;;12.70;7.00;;;;;;;-143.84;84.63;44527.38;4970442;28;20445;-62
2023/04/17 01:03:22;;;;;;;10.03;6.90;;;;;;;-143.84;84.97;44540.69;4969085;28;20481;-62
2023/04/17 01:05:51;;;;;;;7.17;6.47;;;;;;;-143.84;85.74;44308.44;4969350;28;20438;-62
2023/04/17 01:08:18;;;;;;;8.33;6.60;;;;;;;-143.84;85.67;44222.75;4969932;28;20447;-62
2023/04/17 01:10:45;;;;;;;9.40;7.17;;;;;;;-143.84;85.33;44361.72;4970024;28;20487;-62
2023/04/17 01:13:13;;;;;;;9.07;6.47;;;;;;;-143.84;85.21;44371.25;4969554;28;20926;-62
2023/04/17 01:15:41;;;;;;;13.10;6.90;;;;;;;-143.84;85.06;44443.59;4969864;28;20502;-62
2023/04/17 01:18:09;;;;;;;10.13;7.57;;;;;;;-143.84;85.68;44279.88;4969946;28;20918;-62
2023/04/17 01:20:36;;;;;;;12.53;7.97;;;;;;;-143.84;85.91;44116.16;4970250;28;20442;-62
2023/04/17 01:23:03;;;;;;;8.67;7.53;;;;;;;-143.84;86.24;44100.94;4970356;28;20439;-62
2023/04/17 01:25:32;;;;;;;9.97;7.60;;;;;;;-143.84;86.30;44116.16;4970293;28;20460;-62
2023/04/17 01:27:59;;;;;;;10.10;8.50;;;;;;;-143.84;86.66;44083.78;4970266;28;20449;-62
2023/04/17 01:30:26;;;;;;;9.20;7.60;;;;;;;-143.84;86.63;44036.22;4970216;28;20901;-62
2023/04/17 01:32:54;;;;;;;16.23;8.80;;;;;;;-143.84;86.83;43996.22;4970095;28;20441;-62
2023/04/17 01:35:22;;;;;;;19.77;8.23;;;;;;;-143.84;87.43;43958.16;4970094;28;20442;-62
2023/04/17 01:37:49;;;;;;;15.73;9.35;;;;;;;-143.84;87.41;43885.81;4970174;28;20521;-62
2023/04/17 01:40:16;;;;;;;14.80;8.25;;;;;;;-143.84;87.76;43899.16;4970218;28;20269;-62
2023/04/17 01:42:45;;;;;;;10.63;9.50;;;;;;;-143.84;87.87;43851.56;4970251;28;20724;-62
2023/04/17 01:45:12;;;;;;;8.87;8.00;;;;;;;-143.84;87.60;43885.81;4970314;28;20439;-62
2023/04/17 01:47:39;;;;;;;14.13;7.50;;;;;;;-143.84;87.48;43918.19;4970101;28;20508;-62
2023/04/17 01:50:07;;;;;;;7.67;6.70;;;;;;;-143.84;86.90;43990.53;4970028;28;20539;-62
2023/04/17 01:52:35;;;;;;;10.32;8.57;;;;;;;-143.84;87.04;43988.63;4976051;28;20457;-62
2023/04/17 01:55:02;;;;;;;9.30;7.87;;;;;;;-143.84;86.68;44017.16;4989236;28;20203;-62
2023/04/17 01:57:30;;;;;;;10.53;7.47;;;;;;;-143.84;86.32;44108.53;4992846;28;20488;-62
2023/04/17 01:59:58;;;;;;;10.03;8.40;;;;;;;-143.84;86.54;44099.03;4993190;28;20457;-62
2023/04/17 02:02:25;;;;;;;9.48;7.40;;;;;;;-143.84;86.65;44020.97;4993013;28;20453;-62
2023/04/17 02:04:52;;;;;;;17.80;9.20;;;;;;;-143.84;87.32;43944.84;4992941;28;20194;-62
2023/04/17 02:07:20;;;;;;;16.50;9.30;;;;;;;-143.84;87.53;43902.97;4993137;28;20447;-62
2023/04/17 02:09:47;;;;;;;13.57;9.30;;;;;;;-143.84;87.87;43878.22;4992856;28;20472;-62
2023/04/17 02:12:14;;;;;;;18.05;11.07;;;;;;;-143.84;88.10;43823.00;4992891;28;20524;-62
2023/04/17 02:14:41;;;;;;;22.97;9.53;;;;;;;-143.84;88.65;43805.88;4992652;28;20202;-62
2023/04/17 02:17:10;;;;;;;22.92;11.27;;;;;;;-143.84;88.84;43811.59;4992771;28;20496;-62
2023/04/17 02:19:37;;;;;;;21.07;11.47;;;;;;;-143.84;88.67;43834.44;4993267;28;20201;-62
2023/04/17 02:22:04;;;;;;;23.17;10.95;;;;;;;-143.84;89.18;43834.44;4992873;28;20444;-62
2023/04/17 02:24:31;;;;;;;23.80;11.80;;;;;;;-143.84;89.42;43796.34;4992975;28;20206;-62
2023/04/17 02:26:58;;;;;;;22.83;11.37;;;;;;;-143.84;89.39;43830.63;4992814;28;20449;-62
2023/04/17 02:29:25;;;;;;;22.07;11.20;;;;;;;-143.84;89.82;43805.88;4993170;28;21388;-62
2023/04/17 02:31:52;;;;;;;19.10;12.80;;;;;;;-143.84;90.24;43832.53;4992785;28;20454;-62
2023/04/17 02:34:21;;;;;;;20.90;12.10;;;;;;;-143.84;90.25;43840.13;4992875;28;20451;-62
2023/04/17 02:36:48;;;;;;;28.90;12.50;;;;;;;-143.84;90.57;43845.84;4992525;28;20512;-62
2023/04/17 02:39:16;;;;;;;21.67;12.50;;;;;;;-143.84;90.57;43838.25;4992408;28;20440;-62
2023/04/17 02:41:43;;;;;;;17.10;11.23;;;;;;;-143.84;90.63;43853.47;4992380;28;20437;-62
2023/04/17 02:44:10;;;;;;;21.37;13.50;;;;;;;-143.84;90.84;43876.31;4992302;28;20450;-62
2023/04/17 02:46:37;;;;;;;22.83;13.10;;;;;;;-143.84;91.11;43864.88;4992321;28;20441;-62
2023/04/17 02:49:04;;;;;;;23.60;11.50;;;;;;;-143.84;91.18;43853.47;4975685;28;21174;-62
2023/04/17 02:51:32;;;;;;;20.30;12.50;;;;;;;-143.84;90.86;43853.47;4973086;28;20505;-62
2023/04/17 02:53:59;;;;;;;23.30;12.63;;;;;;;-143.84;90.97;43855.38;4972903;28;20449;-62
2023/04/17 02:56:26;;;;;;;15.97;10.53;;;;;;;-143.84;90.63;43834.44;4973026;28;20442;-63
2023/04/17 02:58:54;;;;;;;24.52;12.70;;;;;;;-143.84;90.49;43845.84;4972585;28;20447;-62
2023/04/17 03:01:22;;;;;;;22.95;11.45;;;;;;;-143.84;90.33;43838.25;4972379;28;20265;-63
2023/04/17 03:03:51;;;;;;;18.98;13.25;;;;;;;-143.84;90.04;43843.94;4972578;28;20234;-63
2023/04/17 03:06:18;;;;;;;18.50;11.47;;;;;;;-143.84;89.51;43813.50;4972693;28;20202;-63
2023/04/17 03:08:46;;;;;;;15.80;10.47;;;;;;;-143.84;89.31;43798.25;4971379;28;20506;-63
2023/04/17 03:11:13;;;;;;;11.70;9.98;;;;;;;-143.84;88.34;43811.59;4972454;28;20485;-63
2023/04/17 03:13:41;;;;;;;13.43;10.27;;;;;;;-143.84;88.14;43855.38;4972330;28;20202;-63
2023/04/17 03:16:08;;;;;;;15.53;11.00;;;;;;;-143.84;87.95;43897.25;4972415;28;20455;-62
2023/04/17 03:18:35;;;;;;;12.82;10.18;;;;;;;-143.84;88.04;43826.81;4972192;28;20509;-63
2023/04/17 03:21:02;;;;;;;19.90;10.60;;;;;;;-143.84;88.35;43843.94;4972084;28;20202;-63
2023/04/17 03:23:29;;;;;;;14.83;10.20;;;;;;;-143.84;88.71;43821.09;4971967;28;20445;-62
2023/04/17 03:25:58;;;;;;;15.77;11.10;;;;;;;-143.84;88.90;43811.59;4971957;28;20451;-63
2023/04/17 03:28:25;;;;;;;20.20;11.07;;;;;;;-143.84;89.42;43800.16;4972184;28;20442;-63
2023/04/17 03:30:53;;;;;;;14.83;11.13;;;;;;;-143.84;89.19;43813.50;4971934;28;20825;-63
2023/04/17 03:33:20;;;;;;;18.53;11.93;;;;;;;-143.84;89.42;43807.78;4971898;28;20991;-63
2023/04/17 03:35:47;;;;;;;25.43;13.67;;;;;;;-143.84;89.58;43834.44;4972007;28;20786;-63
2023/04/17 03:38:15;;;;;;;17.97;12.50;;;;;;;-143.84;89.93;43824.91;4971874;28;20445;-62
2023/04/17 03:40:42;;;;;;;22.93;11.77;;;;;;;-143.84;89.99;43823.00;4971944;28;20514;-62
2023/04/17 03:43:10;;;;;;;20.97;12.77;;;;;;;-143.84;90.00;43823.00;4971883;28;20902;-63
2023/04/17 03:45:37;;;;;;;23.95;13.15;;;;;;;-143.84;90.27;43809.69;4971625;28;20454;-63
2023/04/17 03:48:06;;;;;;;20.50;11.90;;;;;;;-143.84;90.24;43821.09;4971322;28;20253;-63
2023/04/17 03:50:33;;;;;;;20.00;12.10;;;;;;;-143.84;90.04;43796.34;4971293;28;20561;-63
2023/04/17 03:53:00;;;;;;;22.70;11.90;;;;;;;-143.84;90.08;43834.44;4971481;28;20454;-63
2023/04/17 03:55:28;;;;;;;23.30;11.37;;;;;;;-143.84;89.87;43826.81;4971698;28;20500;-63
2023/04/17 03:57:55;;;;;;;22.37;12.63;;;;;;;-143.84;90.24;43813.50;4971493;28;20513;-63
2023/04/17 04:00:24;;;;;;;16.63;11.77;;;;;;;-143.84;89.87;43830.63;4971522;28;21006;-63
2023/04/17 04:02:51;;;;;;;22.90;13.80;;;;;;;-143.84;90.17;43817.31;4971382;28;20450;-63
2023/04/17 04:05:19;;;;;;;23.03;12.47;;;;;;;-143.84;90.32;43840.13;4971693;28;20859;-63
2023/04/17 04:07:46;;;;;;;30.30;14.57;;;;;;;-143.84;90.27;43815.41;4971439;28;21338;-63
2023/04/17 04:10:13;;;;;;;26.80;11.97;;;;;;;-143.84;90.01;43815.41;4971505;28;20450;-62
2023/04/17 04:12:40;;;;;;;31.07;14.13;;;;;;;-143.84;89.83;43800.16;4971173;28;20465;-63
2023/04/17 04:15:08;;;;;;;37.65;13.70;;;;;;;-143.84;89.70;43823.00;4971406;28;20508;-63
2023/04/17 04:17:37;;;;;;;23.00;13.10;;;;;;;-143.84;89.35;43784.94;4971088;28;20794;-63
2023/04/17 04:20:07;;;;;;;19.10;12.60;;;;;;;-143.84;89.27;43777.31;4970845;28;21015;-63
2023/04/17 04:22:34;;;;;;;29.90;12.43;;;;;;;-143.84;89.18;43809.69;4971065;28;20945;-63
2023/04/17 04:25:02;;;;;;;26.40;12.13;;;;;;;-143.84;89.30;43796.34;4970910;28;20446;-62
2023/04/17 04:27:31;;;;;;;27.50;13.07;;;;;;;-143.84;89.41;43800.16;4971042;28;20453;-63
2023/04/17 04:30:00;;;;;;;22.50;12.37;;;;;;;-143.84;89.36;43790.66;4970957;28;20448;-63
2023/04/17 04:32:27;;;;;;;27.03;12.83;;;;;;;-143.84;89.33;43796.34;4970820;28;20487;-63
2023/04/17 04:34:57;;;;;;;19.73;11.43;;;;;;;-143.84;89.63;43788.75;4970941;28;20863;-62
2023/04/17 04:37:28;;;;;;;36.37;12.23;;;;;;;-143.84;89.32;43813.50;4970871;28;20447;-63
2023/04/17 04:40:08;;;;;;;21.17;11.80;;;;;;;-143.84;89.57;43803.97;4970780;28;20544;-62
2023/04/17 04:42:35;;;;;;;25.53;12.93;;;;;;;-143.84;89.30;43824.91;4955711;28;20198;-63
2023/04/17 04:45:03;;;;;;;30.20;12.40;;;;;;;-143.84;89.54;43796.34;4951470;28;20454;-63
2023/04/17 04:47:30;;;;;;;30.23;12.80;;;;;;;-143.84;89.30;43800.16;4951595;29;20203;-63
2023/04/17 04:49:58;;;;;;;30.87;12.90;;;;;;;-143.84;89.02;43817.31;4951640;28;20443;-62
2023/04/17 04:52:26;;;;;;;24.37;12.80;;;;;;;-143.84;89.33;43784.94;4951268;28;20521;-63
2023/04/17 04:54:53;;;;;;;16.47;12.17;;;;;;;-143.84;89.22;43788.75;4951088;29;20442;-63
2023/04/17 04:57:20;;;;;;;23.63;11.80;;;;;;;-143.84;89.66;43798.25;4969388;28;20461;-63
2023/04/17 04:59:47;;;;;;;30.97;12.13;;;;;;;-143.84;88.67;43817.31;4970736;28;20198;-63
2023/04/17 05:02:15;;;;;;;18.80;10.63;;;;;;;-143.84;88.24;43815.41;4970898;28;20472;-62
2023/04/17 05:04:42;;;;;;;25.40;11.43;;;;;;;-143.84;88.18;43823.00;4970768;28;20448;-63
2023/04/17 05:07:10;;;;;;;14.00;10.97;;;;;;;-143.84;88.13;43834.44;4970414;28;20509;-63
2023/04/17 05:09:37;;;;;;;17.83;10.20;;;;;;;-143.84;87.16;43969.59;4970136;28;20441;-63
2023/04/17 05:12:04;;;;;;;15.13;8.60;;;;;;;-143.84;86.59;44020.97;4970304;28;21035;-63
2023/04/17 05:14:31;;;;;;;17.73;9.70;;;;;;;-143.84;86.50;43994.31;4970331;28;20455;-62
2023/04/17 05:16:59;;;;;;;18.47;9.17;;;;;;;-143.84;86.39;44051.44;4970120;28;20305;-62
2023/04/17 05:19:26;;;;;;;18.93;10.27;;;;;;;-143.84;86.25;44076.19;4970221;28;20501;-63
2023/04/17 05:21:53;;;;;;;23.53;9.30;;;;;;;-143.84;85.92;44180.88;4970416;28;20455;-62
2023/04/17 05:24:21;;;;;;;21.27;10.07;;;;;;;-143.84;83.18;44774.88;4970254;28;20448;-62
2023/04/17 05:26:49;;;;;;;16.63;8.80;;;;;;;-143.84;82.07;44934.81;4970488;28;20473;-62
2023/04/17 05:29:16;;;;;;;16.07;9.70;;;;;;;-143.84;81.93;44957.66;4969725;28;20265;-63
2023/04/17 05:31:43;;;;;;;17.07;8.53;;;;;;;-143.84;82.23;44900.53;4971183;28;20495;-62
2023/04/17 05:34:10;;;;;;;21.20;9.10;;;;;;;-143.84;81.95;44910.06;4973368;28;21076;-62
2023/04/17 05:36:37;;;;;;;16.60;8.83;;;;;;;-143.84;81.68;44944.34;4973680;28;20522;-63
2023/04/17 05:39:04;;;;;;;19.63;10.20;;;;;;;-143.84;81.67;44957.66;4973734;28;20500;-62
2023/04/17 05:41:33;;;;;;;38.58;9.75;;;;;;;-143.84;82.04;44911.97;4973650;28;21103;-62
2023/04/17 05:44:00;;;;;;;23.83;8.70;;;;;;;-143.84;82.66;44864.38;4973938;28;20729;-62
2023/04/17 05:46:27;;;;;;;25.40;10.33;;;;;;;-143.84;83.05;44805.34;4973781;28;20437;-62
2023/04/17 05:48:54;;;;;;;22.20;9.00;;;;;;;-143.84;82.61;44866.28;4973605;28;20458;-62
2023/04/17 05:51:21;;;;;;;16.50;8.90;;;;;;;-143.84;81.83;44969.09;4973694;28;20485;-62
2023/04/17 05:53:48;;;;;;;20.27;8.60;;;;;;;-143.84;81.42;45001.47;4973667;28;21232;-62
2023/04/17 05:56:15;;;;;;;25.30;10.33;;;;;;;-143.84;81.95;44965.28;4973742;28;20447;-62
2023/04/17 05:58:44;;;;;;;19.67;9.37;;;;;;;-143.84;81.83;44932.91;4973721;28;20445;-62
2023/04/17 06:01:11;;;;;;;16.20;8.40;;;;;;;-143.84;81.53;44990.03;4973801;28;21279;-62
2023/04/17 06:03:38;;;;;;;15.37;8.10;;;;;;;-143.84;80.91;44999.56;4973650;28;20447;-62
2023/04/17 06:06:06;;;;;;;16.90;8.07;;;;;;;-143.84;80.33;45035.75;4973443;28;20452;-62
2023/04/17 06:08:33;;;;;;;20.20;8.80;;;;;;;-143.84;80.62;45009.09;4973345;28;20531;-62
2023/04/17 06:11:00;;;;;;;19.10;8.50;;;;;;;-143.84;80.48;45043.34;4973545;28;21061;-62
2023/04/17 06:13:27;;;;;;;17.33;8.40;;;;;;;-143.84;80.80;45024.31;4973603;28;20433;-62
2023/04/17 06:15:56;;;;;;;16.90;8.93;;;;;;;-143.84;81.16;44976.72;4973205;28;20445;-62
2023/04/17 06:18:23;;;;;;;15.27;8.77;;;;;;;-143.84;81.56;44967.19;4973158;28;20489;-62
2023/04/17 06:20:50;;;;;;;24.17;9.45;;;;;;;-143.84;82.84;44892.94;4973161;28;20477;-62
2023/04/17 06:23:17;;;;;;;19.07;7.93;;;;;;;-143.84;83.12;44860.56;4973337;28;20205;-62
2023/04/17 06:25:44;;;;;;;21.07;8.23;;;;;;;-143.84;83.63;44757.75;4973283;28;20441;-62
2023/04/17 06:28:12;;;;;;;19.67;8.97;;;;;;;-143.84;83.75;44807.25;4973560;28;20436;-62
2023/04/17 06:30:39;;;;;;;24.63;8.30;;;;;;;-143.84;83.50;44793.91;4972938;28;20463;-62
2023/04/17 06:33:07;;;;;;;23.93;9.77;;;;;;;-143.84;83.87;44736.81;4973216;28;20497;-62
2023/04/17 06:35:35;;;;;;;17.40;8.00;;;;;;;-143.84;83.56;44786.31;4967462;28;20455;-63
2023/04/17 06:38:02;;;;;;;25.70;9.43;;;;;;;-143.84;83.70;44782.50;4968722;28;20936;-63
2023/04/17 06:40:29;;;;;;;15.32;9.07;;;;;;;-143.84;84.00;44653.03;4968255;28;20525;-62
2023/04/17 06:42:56;;;;;;;28.67;8.80;;;;;;;-143.84;84.17;44664.44;4969306;28;20212;-64
2023/04/17 06:45:23;;;;;;;24.50;9.50;;;;;;;-143.84;84.85;44588.28;4968718;28;20470;-64
2023/04/17 06:47:50;;;;;;;20.33;9.60;;;;;;;-143.84;85.27;44411.22;4968570;28;20441;-63
2023/04/17 06:50:19;;;;;;;31.70;8.47;;;;;;;-143.84;85.66;44373.16;4967373;28;20862;-63
2023/04/17 06:52:46;;;;;;;20.30;8.50;;;;;;;-143.84;85.77;44251.31;4967057;28;20490;-63
2023/04/17 06:55:13;;;;;;;28.47;9.50;;;;;;;-143.84;86.33;44156.13;4965218;28;20512;-63
2023/04/17 06:57:40;;;;;;;19.47;9.90;;;;;;;-143.84;87.50;43914.38;4966382;28;20867;-63
2023/04/17 07:00:09;;;;;;;32.63;9.97;;;;;;;-143.84;87.51;43914.38;4967400;28;20450;-63
2023/04/17 07:02:36;;;;;;;22.98;9.00;;;;;;;-143.84;88.28;43817.31;4965162;28;20445;-62
2023/04/17 07:05:06;;;;;;;25.70;9.23;;;;;;;-143.84;88.89;43834.44;4964817;28;20284;-64
2023/04/17 07:07:35;;;;;;;26.03;8.77;;;;;;;-143.84;88.93;43815.41;4967068;28;20881;-65
2023/04/17 07:10:03;;;;;;;17.77;8.95;;;;;;;-143.84;89.02;43805.88;4966827;28;20461;-66
2023/04/17 07:12:30;;;;;;;16.73;8.40;;;;;;;-143.84;88.12;43836.34;4966305;28;20289;-66
2023/04/17 07:14:57;;;;;;;27.23;10.10;;;;;;;-143.84;88.43;43821.09;4964676;28;20500;-66
2023/04/17 07:17:25;;;;;;;28.53;10.07;;;;;;;-143.84;88.47;43809.69;4966300;28;20524;-65
2023/04/17 07:19:52;;;;;;;22.37;10.10;;;;;;;-143.84;88.96;43823.00;4966031;28;20453;-65
2023/04/17 07:22:20;;;;;;;24.08;9.90;;;;;;;-143.84;89.10;43813.50;4966300;28;20449;-65
2023/04/17 07:24:49;;;;;;;16.13;9.67;;;;;;;-143.84;88.58;43821.09;4964345;28;20302;-65
2023/04/17 07:27:16;;;;;;;26.30;9.67;;;;;;;-143.84;89.01;43813.50;4966376;28;20468;-64
2023/04/17 07:29:45;;;;;;;25.52;9.50;;;;;;;-143.84;89.24;43803.97;4966420;28;20483;-65
2023/04/17 07:32:12;;;;;;;27.52;8.65;;;;;;;-143.84;89.12;43802.06;4966384;28;20493;-65
2023/04/17 07:34:40;;;;;;;39.95;10.18;;;;;;;-143.84;90.01;43807.78;4963867;28;20253;-65
2023/04/17 07:37:08;;;;;;;17.43;8.97;;;;;;;-143.84;90.13;43838.25;4965969;28;20218;-65
2023/04/17 07:39:35;;;;;;;24.10;8.93;;;;;;;-143.84;91.00;43864.88;4965183;28;21039;-66
2023/04/17 07:42:06;;;;;;;14.23;8.15;;;;;;;-143.84;91.46;43872.50;4966522;28;20445;-65
2023/04/17 07:44:33;;;;;;;24.07;9.63;;;;;;;-143.84;91.70;43855.38;4962746;28;20202;-65
2023/04/17 07:47:00;;;;;;;24.00;9.32;;;;;;;-143.84;92.46;43880.13;4964905;28;20446;-61
2023/04/17 07:49:27;;;;;;;20.43;9.50;;;;;;;-143.84;93.07;43923.91;4965917;28;20206;-62
2023/04/17 07:51:54;;;;;;;23.48;9.10;;;;;;;-143.84;93.69;43946.75;4966222;28;20871;-61
2023/04/17 07:54:22;;;;;;;25.07;9.90;;;;;;;-143.84;93.73;43941.03;4966420;28;20210;-62
2023/04/17 07:56:49;;;;;;;24.63;9.20;;;;;;;-143.84;94.08;43977.19;4966410;28;20450;-61
2023/04/17 07:59:18;;;;;;;21.70;9.37;;;;;;;-143.84;94.32;43960.06;4966141;28;20469;-62
2023/04/17 08:01:45;;;;;;;23.80;8.98;;;;;;;-143.84;94.87;43986.72;4963539;28;20454;-62
2023/04/17 08:04:12;;;;;;;23.15;9.35;;;;;;;-143.84;94.81;43996.22;4965417;28;20202;-62
2023/04/17 08:06:39;;;;;;;21.63;9.77;;;;;;;-143.84;94.56;43986.72;4964463;28;20210;-61
2023/04/17 08:09:07;;;;;;;28.20;9.97;;;;;;;-143.84;94.75;43996.22;4964890;28;20446;-62
2023/04/17 08:11:34;;;;;;;30.83;10.50;;;;;;;-143.84;95.05;44001.94;4964327;28;20437;-61
2023/04/17 08:14:02;;;;;;;28.37;10.47;;;;;;;-143.84;94.90;44020.97;4963018;28;21086;-61
2023/04/17 08:16:31;;;;;;;33.20;10.97;;;;;;;-143.84;94.97;44022.88;4965307;28;20452;-61
2023/04/17 08:18:58;;;;;;;24.60;10.23;;;;;;;-143.84;95.27;44013.38;4964413;28;20560;-61
2023/04/17 08:21:25;;;;;;;18.30;10.27;;;;;;;-143.84;95.35;44028.59;4964865;28;20446;-61
2023/04/17 08:23:52;;;;;;;32.53;10.13;;;;;;;-143.84;95.33;44040.00;4965298;28;20458;-61
2023/04/17 08:26:19;;;;;;;31.50;11.80;;;;;;;-143.84;95.62;44049.53;4964470;28;20453;-61
2023/04/17 08:28:47;;;;;;;22.20;9.80;;;;;;;-143.84;95.67;44043.81;4964852;28;20963;-61
2023/04/17 08:31:14;;;;;;;18.00;9.73;;;;;;;-143.84;96.20;44062.84;4964752;28;20445;-61
2023/04/17 08:33:42;;;;;;;27.00;10.77;;;;;;;-143.84;96.25;44066.66;4961734;28;20583;-62
2023/04/17 08:36:10;;;;;;;16.50;9.60;;;;;;;-143.84;96.71;44060.94;4962953;28;20194;-62
2023/04/17 08:38:37;;;;;;;17.03;10.27;;;;;;;-143.84;96.67;44074.28;4961315;28;20469;-61
2023/04/17 08:41:06;;;;;;;27.58;11.30;;;;;;;-143.84;96.87;44085.69;4961781;28;20461;-62
2023/04/17 08:43:35;;;;;;;26.63;10.27;;;;;;;-143.84;97.13;44093.31;4959398;28;20226;-61
2023/04/17 08:46:03;;;;;;;22.93;9.20;;;;;;;-143.84;97.15;44093.31;4959986;28;21272;-61
2023/04/17 08:48:31;;;;;;;32.13;12.67;;;;;;;-143.84;97.48;44110.44;4960094;28;20453;-61
2023/04/17 08:50:59;;;;;;;21.83;11.10;;;;;;;-143.84;97.59;44112.34;4960052;28;20450;-62
2023/04/17 08:53:26;;;;;;;23.90;9.80;;;;;;;-143.84;97.37;44108.53;4959280;28;20500;-62
2023/04/17 08:55:54;;;;;;;34.67;10.73;;;;;;;-143.84;97.15;44106.63;4960610;28;20453;-62
2023/04/17 08:58:24;;;;;;;26.87;10.60;;;;;;;-143.84;97.32;44106.63;4961121;28;20446;-61
2023/04/17 09:00:51;;;;;;;20.80;10.73;;;;;;;-143.84;97.56;44119.97;4958899;28;20454;-61
2023/04/17 09:03:19;;;;;;;21.33;11.63;;;;;;;-143.84;97.28;44102.84;4961538;28;20445;-61
2023/04/17 09:05:47;;;;;;;22.70;11.33;;;;;;;-143.84;97.65;44116.16;4959727;28;20449;-61
2023/04/17 09:08:19;;;;;;;25.77;13.30;;;;;;;-143.84;97.67;44114.25;4960486;28;20453;-61
2023/04/17 09:10:48;;;;;;;28.87;11.83;;;;;;;-143.84;97.44;44131.38;4960301;28;21106;-62
2023/04/17 09:13:16;;;;;;;21.90;11.07;;;;;;;-143.84;97.76;44112.34;4958888;28;20485;-61
2023/04/17 09:15:45;;;;;;;28.20;11.30;;;;;;;-143.84;97.76;44129.47;4960096;28;20598;-65
2023/04/17 09:18:24;;;;;;;26.23;12.20;;;;;;;-143.84;97.87;44137.09;4960231;28;20485;-66
2023/04/17 09:20:51;;;;;;;28.13;11.87;;;;;;;-143.84;98.09;44142.81;4961188;28;20454;-66
2023/04/17 09:23:21;;;;;;;25.47;11.30;;;;;;;-143.84;98.08;44152.31;4961142;28;20476;-66
2023/04/17 09:26:06;;;;;;;17.33;9.90;;;;;;;-143.84;98.36;44154.22;4962124;28;21027;-66
2023/04/17 09:28:35;;;;;;;24.13;10.40;;;;;;;-143.84;98.79;44177.06;4961295;28;20453;-66
2023/04/17 09:31:05;;;;;;;17.40;10.10;;;;;;;-143.84;98.99;44192.31;4961509;28;21547;-66
2023/04/17 09:33:33;;;;;;;20.70;9.87;;;;;;;-143.84;99.00;44201.81;4960013;28;20485;-66
2023/04/17 09:36:21;;;;;;;15.20;9.20;;;;;;;-143.84;98.61;44188.50;4961313;28;21041;-66
2023/04/17 09:38:50;;;;;;;22.40;11.17;;;;;;;-143.84;98.63;44192.31;4962206;28;20517;-65
2023/04/17 09:41:24;;;;;;;23.00;9.20;;;;;;;-143.84;98.88;44194.22;4962015;28;20487;-61
2023/04/17 09:43:53;;;;;;;13.80;8.27;;;;;;;-143.84;98.67;44201.81;4961750;28;20495;-62
2023/04/17 09:46:39;;;;;;;17.43;8.20;;;;;;;-143.84;98.40;44171.38;4960577;28;20188;-62
2023/04/17 09:49:11;;;;;;;19.60;7.70;;;;;;;-143.84;98.12;44171.38;4960403;28;20442;-62
2023/04/17 09:51:38;;;;;;;20.33;8.47;;;;;;;-143.84;98.25;44165.66;4961564;28;20438;-63
2023/04/17 09:54:09;;;;;;;12.77;8.50;;;;;;;-143.84;98.25;44167.56;4960374;28;20541;-62
2023/04/17 09:56:37;;;;;;;16.87;9.10;;;;;;;-143.84;98.10;44159.94;4959271;28;21239;-63
2023/04/17 09:59:06;;;;;;;28.47;10.03;;;;;;;-143.84;97.97;44150.41;4959138;28;20456;-66
2023/04/17 10:01:35;;;;;;;19.47;9.63;;;;;;;-143.84;97.98;44150.41;4960281;28;20445;-66
2023/04/17 10:04:03;;;;;;;13.25;9.13;;;;;;;-143.84;98.20;44159.94;4958983;28;20450;-63
2023/04/17 10:06:31;;;;;;;20.90;10.10;;;;;;;-143.84;97.95;44158.03;4959379;28;20218;-63
2023/04/17 10:08:59;;;;;;;17.37;10.97;;;;;;;-143.84;97.89;44150.41;4960406;28;20449;-63
2023/04/17 10:11:30;;;;;;;22.57;10.97;;;;;;;-143.84;98.62;44188.50;4961596;28;20445;-63
2023/04/17 10:14:09;;;;;;;23.67;11.23;;;;;;;-143.84;99.04;44207.53;4959783;28;20585;-61
2023/04/17 10:16:37;;;;;;;21.90;10.03;;;;;;;-143.84;98.75;44213.25;4960340;28;20612;-61
2023/04/17 10:19:29;;;;;;;24.57;11.00;;;;;;;-143.84;99.31;44230.38;4964888;28;20461;-61
2023/04/17 10:22:32;;;;;;;21.00;10.30;;;;;;;-143.84;99.36;44234.19;4951394;28;21922;-61
2023/04/17 10:25:21;;;;;;;16.10;11.20;;;;;;;-143.84;99.45;44247.50;4963521;28;20497;-62
2023/04/17 10:27:52;;;;;;;20.70;11.27;;;;;;;-143.84;99.33;44236.09;4964426;28;20917;-62
2023/04/17 10:30:21;;;;;;;28.40;10.73;;;;;;;-143.84;98.89;44222.75;4964595;28;20453;-62
2023/04/17 10:33:23;;;;;;;22.13;12.13;;;;;;;-143.84;99.21;44224.66;4964333;28;20480;-62
2023/04/17 10:35:51;;;;;;;16.48;9.73;;;;;;;-143.84;99.25;44245.59;4961277;28;20461;-65
2023/04/17 10:38:34;;;;;;;16.57;10.40;;;;;;;-143.84;99.12;44257.03;4964353;28;20234;-62
2023/04/17 10:41:03;;;;;;;14.83;10.43;;;;;;;-143.84;98.76;44226.56;4963654;28;20544;-62
2023/04/17 10:43:32;;;;;;;21.83;10.23;;;;;;;-143.84;98.84;44217.06;4963628;28;20475;-62
2023/04/17 10:46:04;;;;;;;14.10;10.40;;;;;;;-143.84;98.81;44218.94;4964774;28;20468;-62
2023/04/17 10:48:34;;;;;;;22.40;11.90;;;;;;;-143.84;98.32;44196.13;4961319;28;20462;-62
2023/04/17 10:51:23;;;;;;;11.97;9.00;;;;;;;-143.84;97.98;44184.69;4963693;28;20446;-62
2023/04/17 10:53:51;;;;;;;18.63;10.63;;;;;;;-143.84;97.96;44171.38;4960736;28;20584;-62
2023/04/17 10:56:19;;;;;;;20.20;10.47;;;;;;;-143.84;97.68;44171.38;4966997;28;20452;-67
2023/04/17 10:58:59;;;;;;;18.90;9.50;;;;;;;-143.84;97.80;44165.66;4968147;28;20445;-67
2023/04/17 11:01:29;;;;;;;24.90;10.10;;;;;;;-143.84;98.05;44169.47;4968324;28;21457;-67
2023/04/17 11:03:58;;;;;;;17.73;10.50;;;;;;;-143.84;97.33;44150.41;4963714;28;20453;-68
2023/04/17 11:06:28;;;;;;;25.20;10.90;;;;;;;-143.84;98.01;44184.69;4963163;28;20457;-67
2023/04/17 11:08:56;;;;;;;21.27;11.90;;;;;;;-143.84;97.98;44184.69;4969689;28;20289;-67
2023/04/17 11:11:24;;;;;;;18.47;11.47;;;;;;;-143.84;97.95;44180.88;4971805;28;20265;-67
2023/04/17 11:13:51;;;;;;;16.33;9.77;;;;;;;-143.84;97.24;44146.63;4969855;28;20492;-63